Home > Products > Valid Products > TAF

000
FTUS44 KSJT 202000 AAA
TAFSJT
TAF AMD
KSJT 202048Z 2021/2118 08006KT P6SM SCT060 BKN250
     FM202300 12005KT P6SM SCT060 BKN250
     FM210500 15004KT P6SM SCT070 BKN250=



000
FTUS44 KSJT 201700
TAFJCT
TAF
KJCT 201739Z 2018/2118 17007KT P6SM SCT040 BKN250
     FM202100 11006KT P6SM FEW050 BKN250
     FM210500 VRB03KT P6SM BKN250=



000
FTUS44 KSJT 201700
TAFABI
TAF
KABI 201739Z 2018/2118 19005KT P6SM SCT060 BKN250
     FM202100 14006KT P6SM SCT060 BKN250
     FM210900 17005KT P6SM SCT250
     FM211500 15004KT P6SM FEW070 BKN250=



000
FTUS44 KSJT 201700
TAFSJT
TAF
KSJT 201739Z 2018/2118 VRB05KT P6SM SCT040 BKN250
     FM202100 12006KT P6SM SCT050 BKN250
     FM210500 15004KT P6SM SCT070 BKN250=



000
FTUS44 KSJT 201400 AAB
TAFJCT
TAF AMD
KJCT 201401Z 2014/2112 VRB03KT 5SM BR SCT012
      TEMPO 2014/2015 3SM BR BKN008
     FM201500 VRB04KT P6SM SCT015
     FM201700 12007KT P6SM SCT040 BKN250=



000
FTUS44 KSJT 201300 AAA
TAFJCT
TAF AMD
KJCT 201335Z 2014/2112 VRB03KT 5SM BR SCT012
      TEMPO 2014/2015 6SM BR BKN015
     FM201500 VRB04KT P6SM SCT015
     FM201700 12007KT P6SM SCT040 BKN250=



000
FTUS44 KSJT 201100
TAFABI
TAF
KABI 201129Z 2012/2112 15009KT P6SM BKN250
     FM201300 18008KT P6SM FEW015 SCT025
     FM201600 17007KT P6SM SCT050 BKN250=



000
FTUS44 KSJT 201100
TAFJCT
TAF
KJCT 201129Z 2012/2112 VRB04KT 6SM BR BKN015
      TEMPO 2012/2013 SCT015
     FM201700 12008KT P6SM SCT040 BKN250=



000
FTUS44 KSJT 201100
TAFSJT
TAF
KSJT 201129Z 2012/2112 VRB03KT P6SM BKN250
     FM201300 VRB04KT P6SM SCT015 BKN250
     FM201600 15008KT P6SM SCT050 BKN250=



000
FTUS44 KSJT 201100 AAA
TAFSJT
TAF AMD
KSJT 201112Z 2011/2106 14009KT P6SM SCT250
     FM201300 VRB04KT P6SM BKN020
     FM201800 16009KT P6SM SCT020 BKN050=



000
FTUS44 KSJT 201000 AAA
TAFJCT
TAF AMD
KJCT 201026Z 2010/2106 08005KT P6SM SCT250
     FM201200 VRB04KT P6SM BKN015
     FM201800 14008KT P6SM SCT015 BKN050=



000
FTUS44 KSJT 200500
TAFABI
TAF
KABI 200520Z 2006/2106 15009KT P6SM SCT250
     FM201300 15008KT P6SM SCT010 BKN025
     FM201800 16010KT P6SM SCT025 BKN050=



000
FTUS44 KSJT 200500
TAFSJT
TAF
KSJT 200520Z 2006/2106 14009KT P6SM SCT250
     FM201100 VRB04KT P6SM BKN020
     FM201800 16009KT P6SM SCT020 BKN050=



000
FTUS44 KSJT 200500
TAFJCT
TAF
KJCT 200520Z 2006/2106 08005KT P6SM SCT250
     FM201000 VRB04KT P6SM BKN015
     FM201800 14008KT P6SM SCT015 BKN050=



000
FTUS44 KSJT 200200 AAA
TAFABI
TAF AMD
KABI 200258Z 2003/2024 15009KT P6SM SCT150
     FM201000 VRB06KT P6SM SCT010 BKN025
     FM201800 16010KT P6SM SCT025 BKN050=



000
FTUS44 KSJT 192300
TAFABI
TAF
KABI 192340Z 2000/2024 17008KT P6SM SCT050
     FM201000 VRB06KT P6SM SCT010 BKN025
     FM201800 16010KT P6SM SCT025 BKN050=



000
FTUS44 KSJT 192300
TAFABI
TAF
KABI 192340Z 2000/2024 17008KT P6SM SCT050
     FM201000 VRB06KT P6SM SCT010 BKN025
     FM201800 16010KT P6SM SCT025 BKN050=



000
FTUS44 KSJT 192300
TAFJCT
TAF
KJCT 192340Z 2000/2024 13008KT P6SM SCT050
     FM201000 VRB06KT P6SM BKN015
     FM201800 14008KT P6SM SCT015 BKN050=



000
FTUS44 KSJT 192300
TAFSJT
TAF
KSJT 192340Z 2000/2024 14009KT P6SM SCT050
     FM201100 VRB06KT P6SM BKN020
     FM201800 16009KT P6SM SCT020 BKN050=



000
FTUS44 KSJT 192300
TAFJCT
TAF
KJCT 192340Z 2000/2024 13008KT P6SM SCT050
     FM201000 VRB06KT P6SM BKN015
     FM201800 14008KT P6SM SCT015 BKN050=



000
FTUS44 KSJT 192300
TAFSJT
TAF
KSJT 192340Z 2000/2024 14009KT P6SM SCT050
     FM201100 VRB06KT P6SM BKN020
     FM201800 16009KT P6SM SCT020 BKN050=



000
FTUS44 KSJT 191900 AAA
TAFABI
TAF AMD
KABI 191944Z 1920/2018 15008KT P6SM SCT025 BKN050
     FM201000 17008KT P6SM SCT010 BKN025
     FM201600 14010KT P6SM SCT025 BKN050=



000
FTUS44 KSJT 191700
TAFJCT
TAF
KJCT 191729Z 1918/2018 13008KT P6SM SCT040
     FM201000 16004KT P6SM BKN015
     FM201700 14008KT P6SM SCT015 BKN050=



000
FTUS44 KSJT 191700
TAFABI
TAF
KABI 191729Z 1918/2018 15008KT P6SM SCT025 BKN050
      TEMPO 1918/1920 BKN025
     FM201000 17008KT P6SM SCT010 BKN025
     FM201600 14010KT P6SM SCT025 BKN050=



000
FTUS44 KSJT 191700
TAFSJT
TAF
KSJT 191729Z 1918/2018 14009KT P6SM SCT020 BKN040
     FM192100 13008KT P6SM SCT050 SCT250
     FM201100 16005KT P6SM BKN020
     FM201700 14008KT P6SM SCT020 BKN050=



000
FTUS44 KSJT 191400 AAB
TAFSJT
TAF AMD
KSJT 191456Z 1915/2012 08005KT P6SM SCT020 BKN050
      TEMPO 1915/1917 BKN020
     FM191700 13008KT P6SM SCT050
     FM192100 11008KT P6SM SCT050 SCT250=



000
FTUS44 KSJT 191400 AAA
TAFABI
TAF AMD
KABI 191406Z 1914/2012 12008KT P6SM FEW015 BKN050
      TEMPO 1914/1916 BKN009
     FM191700 14008KT P6SM SCT025 BKN050
     FM201000 17008KT P6SM SCT010 BKN025=



000
FTUS44 KSJT 191200 AAA
TAFSJT
TAF AMD
KSJT 191241Z 1913/2012 08005KT P6SM BKN015 BKN050
     FM191500 13008KT P6SM BKN050
     FM192100 11008KT P6SM SCT050 SCT250=



000
FTUS44 KSJT 191100
TAFSJT
TAF
KSJT 191124Z 1912/2012 08005KT P6SM SCT025 BKN050
      TEMPO 1912/1914 BKN015
     FM191500 13008KT P6SM BKN050
     FM192100 11008KT P6SM SCT050 SCT250=



000
FTUS44 KSJT 191100
TAFABI
TAF
KABI 191124Z 1912/2012 12008KT P6SM FEW015 SCT050
      TEMPO 1912/1914 BKN015
     FM191400 14008KT P6SM SCT025 BKN050=



000
FTUS44 KSJT 191100
TAFJCT
TAF
KJCT 191124Z 1912/2012 11005KT P6SM SCT015
      TEMPO 1912/1914 BKN015
     FM191600 13007KT P6SM BKN040
     FM192100 13008KT P6SM SCT040=



000
FTUS44 KSJT 190500
TAFSJT
TAF
KSJT 190520Z 1906/2006 06008KT P6SM SKC
     FM190900 09008KT P6SM SCT050
     FM191200 12008KT P6SM SCT025 BKN050=



000
FTUS44 KSJT 190500
TAFABI
TAF
KABI 190520Z 1906/2006 05005KT P6SM SKC
     FM191000 10005KT P6SM SCT050
     FM191400 13008KT P6SM SCT025 BKN050=



000
FTUS44 KSJT 190500
TAFJCT
TAF
KJCT 190520Z 1906/2006 VRB03KT P6SM FEW050
     FM191000 11005KT P6SM BKN020
     FM191800 12007KT P6SM BKN040=



000
FTUS44 KSJT 182300
TAFSJT
TAF
KSJT 182323Z 1900/1924 07007KT P6SM SKC
     FM190400 11005KT P6SM SCT050
     FM191200 12008KT P6SM SCT025 BKN050=



000
FTUS44 KSJT 182300
TAFABI
TAF
KABI 182323Z 1900/1924 05010KT P6SM SKC
     FM190600 10005KT P6SM SCT050
     FM191200 13008KT P6SM SCT025 BKN050=



000
FTUS44 KSJT 182300
TAFJCT
TAF
KJCT 182323Z 1900/1924 08007KT P6SM FEW050
     FM191000 11008KT P6SM BKN020
     FM191900 12007KT P6SM BKN040=



000
FTUS44 KSJT 181700
TAFSJT
TAF
KSJT 181738Z 1818/1918 07007KT P6SM SKC
     FM182000 09006KT P6SM SCT050
     FM190100 11005KT P6SM BKN050
     FM191200 12008KT P6SM SCT025 BKN050=



000
FTUS44 KSJT 181700
TAFJCT
TAF
KJCT 181738Z 1818/1918 10007KT P6SM SCT050
     FM191000 11008KT P6SM BKN020=



000
FTUS44 KSJT 181700
TAFABI
TAF
KABI 181738Z 1818/1918 04005KT P6SM SKC
     FM182000 05010KT P6SM SCT050
     FM190600 10005KT P6SM BKN050
     FM191200 13008KT P6SM SCT025 BKN050=



000
FTUS44 KSJT 181500 AAA
TAFJCT
TAF AMD
KJCT 181521Z 1815/1912 VRB03KT P6SM BKN015
     FM181700 10005KT P6SM SCT015
     FM181900 10006KT P6SM SCT050=



000
FTUS44 KSJT 181100
TAFABI
TAF
KABI 181123Z 1812/1912 06005KT P6SM SKC
     FM182000 05010KT P6SM SCT050
     FM190100 10005KT P6SM SCT250=



000
FTUS44 KSJT 181100
TAFJCT
TAF
KJCT 181123Z 1812/1912 VRB03KT P6SM SCT008
     FM181300 VRB03KT P6SM BKN008
     FM181500 10005KT P6SM SCT015
     FM181700 10006KT P6SM SCT050=



000
FTUS44 KSJT 181100
TAFSJT
TAF
KSJT 181123Z 1812/1912 05007KT P6SM SKC
     FM182000 07006KT P6SM SCT050
     FM190100 11005KT P6SM SCT250=



000
FTUS44 KSJT 181100
TAFSJT
TAF
KSJT 181123Z 1812/1912 05007KT P6SM SKC
     FM182000 07006KT P6SM SCT050
     FM190100 11005KT P6SM SCT250=



000
FTUS44 KSJT 181100
TAFJCT
TAF
KJCT 181123Z 1812/1912 VRB03KT P6SM SCT008
     FM181300 VRB03KT P6SM BKN008
     FM181500 10005KT P6SM SCT015
     FM181700 10006KT P6SM SCT050=



000
FTUS44 KSJT 181100
TAFABI
TAF
KABI 181123Z 1812/1912 06005KT P6SM SKC
     FM182000 05010KT P6SM SCT050
     FM190100 10005KT P6SM SCT250=



000
FTUS44 KSJT 180800 AAA
TAFJCT
TAF AMD
KJCT 180827Z 1808/1906 VRB04KT P6SM SKC
     FM181000 VRB03KT P6SM OVC006
     FM181500 15005KT P6SM SCT008 BKN016
     FM181800 07007KT P6SM SCT040=



000
FTUS44 KSJT 180500
TAFJCT
TAF
KJCT 180520Z 1806/1906 VRB04KT P6SM SKC
     FM181800 07007KT P6SM SKC=



000
FTUS44 KSJT 180500
TAFABI
TAF
KABI 180520Z 1806/1906 04008KT P6SM SKC
     FM182000 05010KT P6SM SCT050=



000
FTUS44 KSJT 180500
TAFSJT
TAF
KSJT 180520Z 1806/1906 05007KT P6SM SKC=



000
FTUS44 KSJT 172300
TAFABI
TAF
KABI 172320Z 1800/1824 04009KT P6SM SKC=



000
FTUS44 KSJT 172300
TAFABI
TAF
KABI 172320Z 1800/1824 04009KT P6SM SKC=



000
FTUS44 KSJT 172300
TAFSJT
TAF
KSJT 172320Z 1800/1824 05008KT P6SM SKC=



000
FTUS44 KSJT 172300
TAFJCT
TAF
KJCT 172320Z 1800/1824 VRB06KT P6SM SKC=



000
FTUS44 KSJT 172300
TAFJCT
TAF
KJCT 172320Z 1800/1824 VRB06KT P6SM SKC=



000
FTUS44 KSJT 172300
TAFSJT
TAF
KSJT 172320Z 1800/1824 05008KT P6SM SKC=



    US Dept of Commerce
    National Oceanic and Atmospheric Administration
    National Weather Service
    1325 East West Highway
    Silver Spring, MD 20910
    Page Author: NWS Internet Services Team
Disclaimer
Information Quality
Credits
Glossary
Privacy Policy
Freedom of Information Act (FOIA)
About Us
Career Opportunities